Time;durP1;ratioP1;P1;durP2;ratioP2;P2;SDS_P1;SDS_P2;PMS_P1;PMS_P2;Temp;Humidity;BMP_temperature;BMP_pressure;BME280_temperature;BME280_humidity;BME280_pressure;Samples;Min_cycle;Max_cycle;Signal;HPM_P1;HPM_P2
2023/08/24 00:01:11;;;;;;;5.32;3.13;;;18.90;99.90;;;;;;5030864;28;20040;-56
2023/08/24 00:03:37;;;;;;;6.72;3.38;;;18.90;99.90;;;;;;5013027;28;20037;-55
2023/08/24 00:06:03;;;;;;;7.43;3.47;;;18.80;99.90;;;;;;5030855;28;20048;-56
2023/08/24 00:08:28;;;;;;;8.68;3.75;;;18.80;99.90;;;;;;5012849;28;20045;-56
2023/08/24 00:10:54;;;;;;;6.95;4.10;;;18.80;99.90;;;;;;5030674;28;20037;-56
2023/08/24 00:13:20;;;;;;;8.13;4.32;;;18.80;99.90;;;;;;5030512;28;20060;-52
2023/08/24 00:15:46;;;;;;;8.57;3.95;;;18.80;99.90;;;;;;5013062;28;20069;-52
2023/08/24 00:18:12;;;;;;;7.60;4.20;;;18.80;99.90;;;;;;5030107;28;20105;-55
2023/08/24 00:20:37;;;;;;;8.13;4.22;;;18.70;99.90;;;;;;5030664;28;20380;-55
2023/08/24 00:23:03;;;;;;;8.10;3.70;;;18.70;99.90;;;;;;5030419;28;20022;-54
2023/08/24 00:25:32;;;;;;;9.32;3.97;;;18.60;99.90;;;;;;5013124;28;20064;-54
2023/08/24 00:27:58;;;;;;;7.05;3.75;;;18.60;99.90;;;;;;5030653;28;20041;-54
2023/08/24 00:30:24;;;;;;;8.50;4.13;;;18.60;99.90;;;;;;5030845;28;20083;-53
2023/08/24 00:32:50;;;;;;;8.32;3.95;;;18.50;99.90;;;;;;5012536;28;20034;-54
2023/08/24 00:35:16;;;;;;;8.15;4.78;;;18.50;99.90;;;;;;5030536;28;20025;-54
2023/08/24 00:37:41;;;;;;;6.82;4.07;;;18.50;99.90;;;;;;5012720;28;20030;-54
2023/08/24 00:40:11;;;;;;;8.95;4.15;;;18.50;99.90;;;;;;5030581;28;20033;-55
2023/08/24 00:42:41;;;;;;;9.35;4.78;;;18.40;99.90;;;;;;5030307;28;20048;-54
2023/08/24 00:45:09;;;;;;;7.75;4.28;;;18.40;99.90;;;;;;5012818;28;20123;-54
2023/08/24 00:47:35;;;;;;;7.20;4.35;;;18.30;99.90;;;;;;5012538;28;20037;-54
2023/08/24 00:50:03;;;;;;;8.60;4.25;;;18.30;99.90;;;;;;5013032;28;20367;-53
2023/08/24 00:52:31;;;;;;;6.25;4.18;;;18.30;99.90;;;;;;5012379;28;20116;-54
2023/08/24 00:54:57;;;;;;;8.55;4.20;;;18.20;99.90;;;;;;5030386;28;20025;-54
2023/08/24 00:57:23;;;;;;;8.98;4.47;;;18.20;99.90;;;;;;5012385;28;20047;-54
2023/08/24 00:59:49;;;;;;;7.70;4.53;;;18.20;99.90;;;;;;5012772;28;20489;-51
2023/08/24 01:02:14;;;;;;;10.70;4.47;;;18.20;99.90;;;;;;5030273;28;20025;-55
2023/08/24 01:04:43;;;;;;;7.63;4.20;;;18.20;99.90;;;;;;5012680;28;20445;-56
2023/08/24 01:07:10;;;;;;;7.07;4.40;;;18.20;99.90;;;;;;5012840;28;20544;-54
2023/08/24 01:09:36;;;;;;;11.00;5.03;;;18.20;99.90;;;;;;5030213;28;20113;-55
2023/08/24 01:12:59;;;;;;;11.02;5.43;;;18.10;99.90;;;;;;5030339;28;20065;-56
2023/08/24 01:15:42;;;;;;;7.22;4.18;;;18.20;99.90;;;;;;4934087;29;20502;-54
2023/08/24 01:18:14;;;;;;;6.53;3.75;;;18.20;99.90;;;;;;4988954;23;20041;-53
2023/08/24 01:20:42;;;;;;;8.10;4.50;;;18.20;99.90;;;;;;5013163;28;20037;-55
2023/08/24 01:23:20;;;;;;;13.85;6.35;;;18.20;99.90;;;;;;5012972;28;20121;-52
2023/08/24 01:25:53;;;;;;;12.75;5.47;;;18.20;99.90;;;;;;5030883;28;20510;-53
2023/08/24 01:28:21;;;;;;;7.32;4.25;;;18.20;99.90;;;;;;5012952;28;20132;-53
2023/08/24 01:30:47;;;;;;;11.32;4.68;;;18.10;99.90;;;;;;5016537;28;20091;-53
2023/08/24 01:33:14;;;;;;;6.57;4.65;;;18.10;99.90;;;;;;5016275;28;20171;-55
2023/08/24 01:35:40;;;;;;;9.13;4.97;;;18.00;99.90;;;;;;5034519;28;20033;-51
2023/08/24 01:38:12;;;;;;;8.80;4.70;;;18.00;99.90;;;;;;5034077;28;20462;-50
2023/08/24 01:41:11;;;;;;;10.38;4.70;;;18.00;99.90;;;;;;5016242;28;20037;-51
2023/08/24 01:43:39;;;;;;;9.13;4.68;;;18.00;99.90;;;;;;5015942;28;20045;-52
2023/08/24 01:46:07;;;;;;;9.40;4.70;;;18.00;99.90;;;;;;5016232;28;20034;-51
2023/08/24 01:48:33;;;;;;;9.18;4.85;;;18.00;99.90;;;;;;5015894;28;20091;-50
2023/08/24 01:51:00;;;;;;;8.98;4.38;;;18.00;99.90;;;;;;5033812;28;20068;-53
2023/08/24 01:53:31;;;;;;;8.90;4.15;;;18.10;99.90;;;;;;5015879;28;20490;-54
2023/08/24 01:55:56;;;;;;;6.57;3.78;;;18.00;99.90;;;;;;5033773;28;20080;-54
2023/08/24 01:58:22;;;;;;;12.63;4.88;;;18.00;99.90;;;;;;5015787;28;20026;-52
2023/08/24 02:00:48;;;;;;;8.95;4.70;;;17.90;99.90;;;;;;5016002;28;20034;-51
2023/08/24 02:03:13;;;;;;;9.35;4.82;;;17.90;99.90;;;;;;5015351;28;20111;-52
2023/08/24 02:05:39;;;;;;;10.43;4.93;;;17.80;99.90;;;;;;5015788;28;20034;-52
2023/08/24 02:08:05;;;;;;;7.95;4.50;;;17.70;99.90;;;;;;5015488;28;20033;-54
2023/08/24 02:10:31;;;;;;;10.07;4.70;;;17.80;99.90;;;;;;5015710;28;20040;-51
2023/08/24 02:12:56;;;;;;;9.75;4.63;;;17.70;99.90;;;;;;5033348;28;20363;-52
2023/08/24 02:15:22;;;;;;;8.23;4.47;;;17.60;99.90;;;;;;5015447;28;20028;-53
2023/08/24 02:17:48;;;;;;;8.35;4.35;;;17.60;99.90;;;;;;5033083;28;20555;-52
2023/08/24 02:20:14;;;;;;;9.48;4.68;;;17.50;99.90;;;;;;5033407;28;20536;-50
2023/08/24 02:22:40;;;;;;;9.90;4.90;;;17.50;99.90;;;;;;5015156;28;20064;-55
2023/08/24 02:25:06;;;;;;;9.20;4.53;;;17.40;99.90;;;;;;5015411;28;20037;-50
2023/08/24 02:27:32;;;;;;;9.25;4.35;;;17.40;99.90;;;;;;5015296;28;20037;-50
2023/08/24 02:29:58;;;;;;;8.40;4.50;;;17.30;99.90;;;;;;5033205;28;20025;-54
2023/08/24 02:32:25;;;;;;;9.45;4.63;;;17.30;99.90;;;;;;5014947;28;20144;-52
2023/08/24 02:34:51;;;;;;;7.63;4.40;;;17.30;99.90;;;;;;5033225;28;20508;-52
2023/08/24 02:37:16;;;;;;;6.90;4.53;;;17.30;99.90;;;;;;5015256;28;20038;-50
2023/08/24 02:39:42;;;;;;;9.50;4.97;;;17.20;99.90;;;;;;5014678;28;20037;-53
2023/08/24 02:42:08;;;;;;;8.55;4.68;;;17.20;99.90;;;;;;5032811;28;20083;-51
2023/08/24 02:44:34;;;;;;;10.25;5.07;;;17.10;99.90;;;;;;5032807;28;20038;-53
2023/08/24 02:47:00;;;;;;;7.15;4.25;;;17.10;99.90;;;;;;5014913;28;20049;-53
2023/08/24 02:49:25;;;;;;;7.18;4.30;;;17.20;99.90;;;;;;5014764;28;20037;-50
2023/08/24 02:51:51;;;;;;;7.82;4.40;;;17.10;99.90;;;;;;5032523;28;20428;-55
2023/08/24 02:54:17;;;;;;;9.48;5.10;;;17.20;99.90;;;;;;5014654;28;20025;-53
2023/08/24 02:56:43;;;;;;;10.25;5.13;;;17.30;99.90;;;;;;5014733;28;20490;-52
2023/08/24 02:59:08;;;;;;;8.93;4.93;;;17.50;99.90;;;;;;5014712;28;20025;-53
2023/08/24 03:01:38;;;;;;;8.40;4.28;;;17.50;99.90;;;;;;5032441;28;20026;-52
2023/08/24 03:04:05;;;;;;;7.53;4.60;;;17.50;99.90;;;;;;5014604;28;20060;-54
2023/08/24 03:06:30;;;;;;;9.40;4.60;;;17.40;99.90;;;;;;5014724;28;20029;-55
2023/08/24 03:08:56;;;;;;;6.68;4.20;;;17.40;99.90;;;;;;5014596;28;20048;-54
2023/08/24 03:11:22;;;;;;;7.03;4.05;;;17.30;99.90;;;;;;5014436;28;20033;-52
2023/08/24 03:13:48;;;;;;;6.18;3.67;;;17.20;99.90;;;;;;5014217;28;20032;-54
2023/08/24 03:16:13;;;;;;;6.18;3.70;;;17.20;99.90;;;;;;5014712;28;20017;-54
2023/08/24 03:18:39;;;;;;;7.32;4.53;;;17.10;99.90;;;;;;5014300;28;20079;-53
2023/08/24 03:21:06;;;;;;;7.00;4.07;;;17.10;99.90;;;;;;5014527;28;20128;-54
2023/08/24 03:23:33;;;;;;;7.07;4.32;;;17.10;99.90;;;;;;5014535;28;20402;-53
2023/08/24 03:25:59;;;;;;;7.05;3.80;;;17.10;99.90;;;;;;5014581;28;20033;-55
2023/08/24 03:28:24;;;;;;;8.43;4.15;;;17.10;99.90;;;;;;5014259;28;20083;-55
2023/08/24 03:30:52;;;;;;;9.32;4.50;;;17.20;99.90;;;;;;5014430;28;20025;-53
2023/08/24 03:33:19;;;;;;;9.35;4.38;;;17.20;99.90;;;;;;5014205;28;20398;-54
2023/08/24 03:35:45;;;;;;;6.60;3.92;;;17.30;99.90;;;;;;5014467;28;20034;-53
2023/08/24 03:38:10;;;;;;;7.78;4.57;;;17.30;99.90;;;;;;5031909;28;20021;-53
2023/08/24 03:40:36;;;;;;;7.55;4.15;;;17.30;99.90;;;;;;5014266;28;20053;-55
2023/08/24 03:43:03;;;;;;;7.25;3.67;;;17.30;99.90;;;;;;5013965;28;20033;-52
2023/08/24 03:45:29;;;;;;;7.90;3.90;;;17.30;99.90;;;;;;5031942;28;20036;-55
2023/08/24 03:47:56;;;;;;;8.68;4.03;;;17.40;99.90;;;;;;5013791;28;20034;-54
2023/08/24 03:50:22;;;;;;;7.93;4.38;;;17.40;99.90;;;;;;5013732;28;20501;-53
2023/08/24 03:52:51;;;;;;;7.28;3.60;;;17.40;99.90;;;;;;5030781;28;20036;-54
2023/08/24 03:55:16;;;;;;;8.43;3.85;;;17.50;99.90;;;;;;5013808;28;20037;-53
2023/08/24 03:57:43;;;;;;;6.47;3.92;;;17.50;99.90;;;;;;5013534;28;20526;-54
2023/08/24 04:00:14;;;;;;;6.45;3.78;;;17.50;99.90;;;;;;5031794;28;20059;-50
2023/08/24 04:02:41;;;;;;;6.30;3.38;;;17.60;99.90;;;;;;5031582;28;20045;-53
2023/08/24 04:05:07;;;;;;;8.20;3.75;;;17.60;99.90;;;;;;5013773;28;20037;-53
2023/08/24 04:07:36;;;;;;;8.50;3.83;;;17.60;99.90;;;;;;5031393;28;20379;-51
2023/08/24 04:10:04;;;;;;;6.07;3.42;;;17.60;99.90;;;;;;5013531;28;20124;-52
2023/08/24 04:12:32;;;;;;;8.73;4.00;;;17.70;99.90;;;;;;5013424;28;20052;-52
2023/08/24 04:14:57;;;;;;;5.88;3.40;;;17.80;99.90;;;;;;5013483;28;20025;-53
2023/08/24 04:17:24;;;;;;;5.95;3.65;;;17.80;99.90;;;;;;5031105;28;20482;-55
2023/08/24 04:19:50;;;;;;;5.90;3.17;;;17.80;99.90;;;;;;5013691;28;20073;-52
2023/08/24 04:22:15;;;;;;;8.20;3.65;;;17.70;99.90;;;;;;5031227;28;20117;-54
2023/08/24 04:24:41;;;;;;;7.28;3.30;;;17.70;99.90;;;;;;5031174;28;20362;-54
2023/08/24 04:27:07;;;;;;;7.55;3.75;;;17.60;99.90;;;;;;5031381;28;20086;-53
2023/08/24 04:29:33;;;;;;;9.05;4.13;;;17.60;99.90;;;;;;5031034;28;20140;-55
2023/08/24 04:31:58;;;;;;;6.78;3.60;;;17.50;99.90;;;;;;5031055;28;20600;-54
2023/08/24 04:34:24;;;;;;;6.25;3.60;;;17.50;99.90;;;;;;5031169;28;20025;-52
2023/08/24 04:36:50;;;;;;;7.88;4.05;;;17.50;99.90;;;;;;5031180;28;20029;-55
2023/08/24 04:39:15;;;;;;;8.63;4.15;;;17.40;99.90;;;;;;5013093;28;20120;-52
2023/08/24 04:41:41;;;;;;;9.70;5.18;;;17.40;99.90;;;;;;5030506;28;20030;-54
2023/08/24 04:44:07;;;;;;;13.30;5.15;;;17.30;99.90;;;;;;5024881;28;20088;-55
2023/08/24 04:46:34;;;;;;;9.68;4.20;;;17.40;99.90;;;;;;5023077;28;20032;-52
2023/08/24 04:48:59;;;;;;;8.23;4.03;;;17.40;99.90;;;;;;5021694;28;20041;-54
2023/08/24 04:51:27;;;;;;;8.88;4.22;;;17.50;99.90;;;;;;5025094;28;20021;-52
2023/08/24 04:53:53;;;;;;;8.20;3.85;;;17.70;99.90;;;;;;5021979;28;20026;-51
2023/08/24 04:56:19;;;;;;;6.68;3.55;;;17.70;99.90;;;;;;5014799;28;20034;-51
2023/08/24 04:58:58;;;;;;;9.68;3.97;;;17.60;99.90;;;;;;5020589;28;20017;-50
2023/08/24 05:01:26;;;;;;;8.20;3.90;;;17.60;99.90;;;;;;5010999;28;20026;-52
2023/08/24 05:03:53;;;;;;;7.75;4.07;;;17.60;99.90;;;;;;5013753;28;20033;-50
2023/08/24 05:06:19;;;;;;;10.15;3.83;;;17.70;99.90;;;;;;5014698;28;20026;-52
2023/08/24 05:08:45;;;;;;;8.73;4.50;;;17.90;99.90;;;;;;5014412;28;20494;-50
2023/08/24 05:11:16;;;;;;;7.80;4.43;;;18.00;99.90;;;;;;5014963;28;20060;-54
2023/08/24 05:13:42;;;;;;;14.00;6.95;;;18.00;99.90;;;;;;5017008;28;20143;-54
2023/08/24 05:16:09;;;;;;;13.10;5.60;;;18.20;99.90;;;;;;5018218;28;20478;-51
2023/08/24 05:18:37;;;;;;;6.60;4.20;;;18.20;99.90;;;;;;5014898;28;20050;-48
2023/08/24 05:21:04;;;;;;;10.35;3.47;;;18.20;99.90;;;;;;5014753;28;20084;-51
2023/08/24 05:23:31;;;;;;;8.35;3.58;;;18.10;99.90;;;;;;5014441;28;20072;-49
2023/08/24 05:25:57;;;;;;;8.15;4.32;;;18.20;99.90;;;;;;5014924;28;20033;-53
2023/08/24 05:28:24;;;;;;;11.25;4.78;;;18.30;99.90;;;;;;5014372;28;20113;-52
2023/08/24 05:30:51;;;;;;;7.78;3.78;;;18.50;99.90;;;;;;5014559;28;20045;-53
2023/08/24 05:33:17;;;;;;;8.38;3.88;;;18.60;99.90;;;;;;5014308;28;20101;-54
2023/08/24 05:35:42;;;;;;;8.05;3.72;;;18.70;99.90;;;;;;5014502;28;20447;-54
2023/08/24 05:38:08;;;;;;;10.70;4.47;;;18.80;99.90;;;;;;5014353;28;20485;-53
2023/08/24 05:40:34;;;;;;;10.50;4.22;;;18.80;99.90;;;;;;5014752;28;20038;-50
2023/08/24 05:43:00;;;;;;;7.43;3.70;;;18.70;99.90;;;;;;5014618;28;20507;-53
2023/08/24 05:45:25;;;;;;;10.32;4.38;;;18.70;99.90;;;;;;5014656;28;20057;-54
2023/08/24 05:47:51;;;;;;;7.07;3.92;;;18.80;99.90;;;;;;5014522;28;20045;-54
2023/08/24 05:50:17;;;;;;;8.90;3.90;;;18.80;99.90;;;;;;5014731;28;20057;-54
2023/08/24 05:52:42;;;;;;;9.57;4.25;;;18.80;99.90;;;;;;5014532;28;20034;-53
2023/08/24 05:55:08;;;;;;;9.27;4.03;;;18.80;99.90;;;;;;5014635;28;20030;-54
2023/08/24 05:57:34;;;;;;;11.70;4.35;;;18.80;99.90;;;;;;5014417;28;20030;-56
2023/08/24 05:59:59;;;;;;;8.15;4.22;;;18.80;99.90;;;;;;5014544;28;20029;-54
2023/08/24 06:02:25;;;;;;;7.82;3.83;;;18.80;99.90;;;;;;5014071;28;20096;-52
2023/08/24 06:04:50;;;;;;;8.55;4.13;;;18.70;99.90;;;;;;5014155;28;20568;-54
2023/08/24 06:07:17;;;;;;;14.43;4.30;;;18.60;99.90;;;;;;5014257;28;20034;-54
2023/08/24 06:09:42;;;;;;;10.13;4.35;;;18.50;99.90;;;;;;5013972;28;20088;-54
2023/08/24 06:12:08;;;;;;;6.47;3.97;;;18.50;99.90;;;;;;5014360;28;20030;-53
2023/08/24 06:14:34;;;;;;;8.02;4.05;;;18.50;99.90;;;;;;5013156;28;20033;-53
2023/08/24 06:16:59;;;;;;;8.75;3.42;;;18.50;99.90;;;;;;5013801;28;20025;-50
2023/08/24 06:19:25;;;;;;;10.40;3.95;;;18.60;99.90;;;;;;5013729;28;20104;-55
2023/08/24 06:21:51;;;;;;;11.50;4.15;;;18.70;99.90;;;;;;5013481;28;20487;-52
2023/08/24 06:24:16;;;;;;;9.13;4.30;;;18.70;99.90;;;;;;5013592;28;20036;-55
2023/08/24 06:26:42;;;;;;;7.68;4.00;;;18.70;99.90;;;;;;5013609;28;20064;-53
2023/08/24 06:29:07;;;;;;;8.70;4.20;;;18.80;99.90;;;;;;5013314;28;20077;-53
2023/08/24 06:31:33;;;;;;;12.43;3.88;;;18.90;99.90;;;;;;4995514;28;20037;-52
2023/08/24 06:34:00;;;;;;;10.18;3.90;;;19.10;99.90;;;;;;5013151;28;20152;-53
2023/08/24 06:36:25;;;;;;;10.45;4.32;;;19.40;99.90;;;;;;5013377;28;20112;-57
2023/08/24 06:38:51;;;;;;;9.35;4.07;;;19.50;99.90;;;;;;5013112;28;20165;-51
2023/08/24 06:41:16;;;;;;;9.45;4.10;;;19.50;99.90;;;;;;5013282;28;20036;-50
2023/08/24 06:43:42;;;;;;;8.27;3.70;;;19.50;99.90;;;;;;5013022;28;20206;-50
2023/08/24 06:46:08;;;;;;;9.38;4.15;;;19.60;99.90;;;;;;5024298;28;20486;-52
2023/08/24 06:48:34;;;;;;;10.93;4.78;;;19.70;99.90;;;;;;5032307;28;20030;-52
2023/08/24 06:51:00;;;;;;;9.45;3.85;;;19.70;99.90;;;;;;5032683;28;20470;-54
2023/08/24 06:53:26;;;;;;;7.22;3.53;;;19.80;99.90;;;;;;5032500;28;20037;-55
2023/08/24 06:55:58;;;;;;;9.85;3.83;;;19.90;99.90;;;;;;5032660;28;20033;-53
2023/08/24 06:58:24;;;;;;;6.78;2.97;;;20.10;99.90;;;;;;5030368;28;20029;-51
2023/08/24 07:00:54;;;;;;;9.60;3.80;;;20.20;99.90;;;;;;5030463;28;20040;-52
2023/08/24 07:03:19;;;;;;;9.88;4.53;;;20.30;99.90;;;;;;5031287;28;20142;-53
2023/08/24 07:05:46;;;;;;;6.95;4.20;;;20.40;99.90;;;;;;5032107;28;20121;-53
2023/08/24 07:08:13;;;;;;;7.07;3.35;;;20.60;99.90;;;;;;5031074;28;20063;-53
2023/08/24 07:10:39;;;;;;;7.93;3.78;;;20.70;99.90;;;;;;5032183;28;20067;-53
2023/08/24 07:13:07;;;;;;;6.63;2.88;;;20.80;99.90;;;;;;5031881;28;20124;-54
2023/08/24 07:15:34;;;;;;;6.60;3.50;;;20.90;99.90;;;;;;5032101;28;20437;-54
2023/08/24 07:18:01;;;;;;;8.50;3.60;;;21.00;99.90;;;;;;5031886;28;20057;-54
2023/08/24 07:20:27;;;;;;;6.65;3.42;;;21.10;99.90;;;;;;5032117;28;20449;-53
2023/08/24 07:22:53;;;;;;;8.20;3.03;;;21.30;99.90;;;;;;5031632;28;20029;-52
2023/08/24 07:25:22;;;;;;;5.82;3.20;;;21.40;99.90;;;;;;5032174;28;20385;-54
2023/08/24 07:27:48;;;;;;;5.50;2.83;;;21.50;99.90;;;;;;5030895;28;20037;-53
2023/08/24 07:30:14;;;;;;;6.78;3.63;;;21.70;99.90;;;;;;5032063;28;20041;-53
2023/08/24 07:32:41;;;;;;;9.15;3.00;;;21.80;99.90;;;;;;5032094;28;20029;-50
2023/08/24 07:35:07;;;;;;;5.95;2.78;;;21.90;99.90;;;;;;5031829;28;20025;-54
2023/08/24 07:37:32;;;;;;;6.50;3.22;;;22.10;99.90;;;;;;5031614;28;20037;-53
2023/08/24 07:39:58;;;;;;;7.35;3.10;;;22.20;99.90;;;;;;5031998;28;20064;-52
2023/08/24 07:42:24;;;;;;;6.40;2.63;;;22.30;99.90;;;;;;5032258;28;20033;-52
2023/08/24 07:44:50;;;;;;;5.60;2.60;;;22.40;99.90;;;;;;5032234;28;20040;-54
2023/08/24 07:47:16;;;;;;;4.55;2.50;;;22.70;99.90;;;;;;5031952;28;20029;-53
2023/08/24 07:49:44;;;;;;;4.47;2.33;;;22.90;99.90;;;;;;5031657;28;20044;-49
2023/08/24 07:52:13;;;;;;;6.18;2.17;;;23.10;99.90;;;;;;5031518;28;20041;-53
2023/08/24 07:54:39;;;;;;;;;;;23.30;99.90;;;;;;5032082;28;20025;-53
2023/08/24 07:57:07;;;;;;;4.05;2.22;;;23.70;99.90;;;;;;5031715;28;20255;-52
2023/08/24 07:59:33;;;;;;;3.85;1.90;;;23.80;99.90;;;;;;5031515;28;20061;-54
2023/08/24 08:01:59;;;;;;;4.30;2.08;;;24.00;99.90;;;;;;5031455;28;20098;-53
2023/08/24 08:04:24;;;;;;;5.38;2.35;;;24.10;99.90;;;;;;5031403;28;20021;-52
2023/08/24 08:06:50;;;;;;;4.80;2.28;;;24.20;99.90;;;;;;5014005;28;20057;-54
2023/08/24 08:09:16;;;;;;;4.75;2.60;;;24.10;99.90;;;;;;5031388;28;20564;-54
2023/08/24 08:11:42;;;;;;;7.43;2.53;;;24.10;99.90;;;;;;5031262;28;20037;-54
2023/08/24 08:14:09;;;;;;;3.92;2.30;;;24.20;99.90;;;;;;5031333;28;20083;-53
2023/08/24 08:16:36;;;;;;;5.07;2.00;;;24.30;99.90;;;;;;5031808;28;20452;-53
2023/08/24 08:19:02;;;;;;;5.43;2.13;;;24.40;99.90;;;;;;5031249;28;20030;-54
2023/08/24 08:21:27;;;;;;;3.67;1.90;;;24.50;99.90;;;;;;5031033;28;20488;-53
2023/08/24 08:23:53;;;;;;;3.83;2.03;;;24.60;99.90;;;;;;5031130;28;20517;-53
2023/08/24 08:26:19;;;;;;;4.15;2.13;;;24.60;99.90;;;;;;5031070;28;20033;-53
2023/08/24 08:28:44;;;;;;;7.40;2.90;;;24.60;99.90;;;;;;5031297;28;20408;-54
2023/08/24 08:31:10;;;;;;;5.90;2.75;;;24.60;99.90;;;;;;5031495;28;20036;-52
2023/08/24 08:33:36;;;;;;;5.68;2.00;;;24.70;99.90;;;;;;5030947;28;20060;-55
2023/08/24 08:36:01;;;;;;;5.05;2.40;;;24.80;99.90;;;;;;5032335;28;20369;-56
2023/08/24 08:38:28;;;;;;;3.97;2.20;;;25.00;99.90;;;;;;5032784;28;20032;-55
2023/08/24 08:40:55;;;;;;;4.18;2.28;;;25.00;99.90;;;;;;5034971;28;20470;-56
2023/08/24 08:43:24;;;;;;;5.82;2.13;;;25.10;99.90;;;;;;5034274;28;20159;-55
2023/08/24 08:45:52;;;;;;;4.22;2.10;;;25.20;99.90;;;;;;5033636;28;20033;-55
2023/08/24 08:48:18;;;;;;;5.57;2.63;;;25.30;99.90;;;;;;5034451;28;20037;-56
2023/08/24 08:50:44;;;;;;;5.57;1.95;;;25.30;99.90;;;;;;5034566;28;20026;-56
2023/08/24 08:53:09;;;;;;;5.43;2.05;;;25.40;99.90;;;;;;5034125;28;20363;-57
2023/08/24 08:55:35;;;;;;;4.65;2.03;;;25.40;99.90;;;;;;5034747;28;20124;-54
2023/08/24 08:58:03;;;;;;;3.70;1.70;;;25.40;99.90;;;;;;5034589;28;20376;-54
2023/08/24 09:00:29;;;;;;;3.85;2.15;;;25.70;99.90;;;;;;5034534;28;20033;-54
2023/08/24 09:02:57;;;;;;;3.35;1.90;;;25.70;99.90;;;;;;5034135;28;20033;-56
2023/08/24 09:05:26;;;;;;;8.00;1.88;;;25.70;99.90;;;;;;5034445;28;20021;-55
2023/08/24 09:07:54;;;;;;;4.13;1.98;;;25.90;99.90;;;;;;5034446;28;20033;-54
2023/08/24 09:10:20;;;;;;;;;;;26.00;99.90;;;;;;5034966;28;20033;-55
2023/08/24 09:12:45;;;;;;;4.68;1.85;;;26.10;99.90;;;;;;5034280;28;19936;-54
2023/08/24 09:15:11;;;;;;;2.20;1.50;;;26.30;99.90;;;;;;5034070;28;20386;-55
2023/08/24 09:17:42;;;;;;;3.88;2.10;;;26.30;99.90;;;;;;5033950;28;20492;-55
2023/08/24 09:20:09;;;;;;;4.22;2.00;;;26.30;99.90;;;;;;5034210;28;20057;-56
2023/08/24 09:22:36;;;;;;;2.03;1.30;;;26.40;99.90;;;;;;5016373;28;20041;-55
2023/08/24 09:25:03;;;;;;;3.22;1.73;;;26.40;99.90;;;;;;5034345;28;20037;-56
2023/08/24 09:27:29;;;;;;;2.47;1.50;;;26.50;99.90;;;;;;5033829;28;20351;-52
2023/08/24 09:29:55;;;;;;;3.53;1.60;;;26.50;99.90;;;;;;5033808;28;20029;-53
2023/08/24 09:32:31;;;;;;;3.67;2.05;;;26.70;99.90;;;;;;5033702;28;20026;-54
2023/08/24 09:35:23;;;;;;;2.95;1.70;;;26.70;99.90;;;;;;5033844;28;20033;-55
2023/08/24 09:37:49;;;;;;;4.45;2.17;;;26.80;99.90;;;;;;5029934;28;20478;-54
2023/08/24 09:40:15;;;;;;;4.03;1.70;;;26.90;99.90;;;;;;5033819;28;20083;-55
2023/08/24 09:42:42;;;;;;;3.90;1.70;;;27.00;99.90;;;;;;5033426;28;20037;-55
2023/08/24 09:45:11;;;;;;;3.13;1.90;;;27.10;99.90;;;;;;5033486;28;20470;-53
2023/08/24 09:47:37;;;;;;;2.88;1.65;;;27.10;99.90;;;;;;5033355;28;20033;-54
2023/08/24 09:50:04;;;;;;;2.35;1.42;;;27.10;99.90;;;;;;5032374;28;20036;-54
2023/08/24 09:52:33;;;;;;;3.28;1.60;;;27.10;99.90;;;;;;5033162;28;20021;-55
2023/08/24 09:55:05;;;;;;;4.20;1.95;;;27.10;99.90;;;;;;5033411;28;20032;-53
2023/08/24 09:57:40;;;;;;;4.03;2.28;;;27.10;99.90;;;;;;5033208;28;20080;-54
2023/08/24 10:00:10;;;;;;;3.20;1.48;;;27.20;99.90;;;;;;5033263;28;20044;-56
2023/08/24 10:02:55;;;;;;;3.17;1.40;;;27.30;99.90;;;;;;5033081;28;20044;-52
2023/08/24 10:05:25;;;;;;;3.67;1.80;;;27.30;99.90;;;;;;5033119;28;20038;-51
2023/08/24 10:07:56;;;;;;;2.83;1.90;;;27.30;99.90;;;;;;5033086;28;20065;-54
2023/08/24 10:10:25;;;;;;;4.82;1.90;;;27.50;99.90;;;;;;5033054;28;20034;-53
2023/08/24 10:12:52;;;;;;;;;;;27.50;99.90;;;;;;5033458;28;20526;-54
2023/08/24 10:15:19;;;;;;;3.38;1.90;;;27.50;99.90;;;;;;5033081;28;20055;-54
2023/08/24 10:17:45;;;;;;;3.10;1.90;;;27.60;99.90;;;;;;5032474;28;20501;-56
2023/08/24 10:20:11;;;;;;;2.75;1.83;;;27.60;99.90;;;;;;5032811;28;20033;-56
2023/08/24 10:22:40;;;;;;;3.60;1.70;;;27.60;99.90;;;;;;5032807;28;20037;-56
2023/08/24 10:25:08;;;;;;;3.85;1.77;;;27.70;99.80;;;;;;5033195;28;20033;-53
2023/08/24 10:27:34;;;;;;;4.65;1.90;;;27.70;99.90;;;;;;5015586;28;20544;-55
2023/08/24 10:30:00;;;;;;;3.45;1.70;;;27.70;99.70;;;;;;5033052;28;20029;-52
2023/08/24 10:32:26;;;;;;;3.60;2.38;;;27.60;99.90;;;;;;5032908;28;20021;-54
2023/08/24 10:34:52;;;;;;;3.45;2.08;;;27.70;99.90;;;;;;5033373;28;20020;-55
2023/08/24 10:37:25;;;;;;;4.68;2.17;;;27.70;99.90;;;;;;5033389;28;20087;-52
2023/08/24 10:39:51;;;;;;;4.20;2.00;;;27.80;99.90;;;;;;5033382;28;20552;-53
2023/08/24 10:42:16;;;;;;;4.05;1.65;;;27.90;99.90;;;;;;5032749;28;20041;-54
2023/08/24 10:44:46;;;;;;;5.70;1.80;;;27.80;99.90;;;;;;5032718;28;20036;-55
2023/08/24 10:47:19;;;;;;;5.45;1.92;;;27.80;99.90;;;;;;5032844;28;20524;-53
2023/08/24 10:49:59;;;;;;;4.40;2.13;;;27.90;99.50;;;;;;5032785;28;20040;-56
2023/08/24 10:52:25;;;;;;;3.55;2.20;;;28.00;99.10;;;;;;5029638;28;20022;-52
2023/08/24 10:54:54;;;;;;;3.78;1.83;;;28.00;99.30;;;;;;5022339;28;20480;-54
2023/08/24 10:57:27;;;;;;;7.90;2.60;;;27.90;99.80;;;;;;5005736;28;20026;-53
2023/08/24 11:00:09;;;;;;;4.10;2.22;;;28.00;99.90;;;;;;5005098;28;20041;-52
2023/08/24 11:02:48;;;;;;;6.22;2.83;;;28.10;99.90;;;;;;5021447;28;20029;-54
2023/08/24 11:05:30;;;;;;;6.95;3.10;;;28.20;99.90;;;;;;5020365;28;20033;-54
2023/08/24 11:08:06;;;;;;;7.07;3.47;;;28.30;99.30;;;;;;5027588;28;20045;-55
2023/08/24 11:10:40;;;;;;;5.82;3.33;;;28.20;99.40;;;;;;5018170;28;20478;-54
2023/08/24 11:13:15;;;;;;;4.53;2.63;;;28.30;99.50;;;;;;5021341;28;20033;-51
2023/08/24 11:15:50;;;;;;;5.18;2.03;;;28.30;99.50;;;;;;4995039;28;20030;-52
2023/08/24 11:18:18;;;;;;;4.97;2.50;;;28.30;99.60;;;;;;5011716;28;20403;-54
2023/08/24 11:20:45;;;;;;;3.00;1.55;;;28.30;99.30;;;;;;5011988;28;20054;-53
2023/08/24 11:23:12;;;;;;;3.47;1.80;;;28.10;99.50;;;;;;5011327;28;20034;-55
2023/08/24 11:25:38;;;;;;;3.55;1.67;;;28.10;99.20;;;;;;5011887;28;20394;-54
2023/08/24 11:28:04;;;;;;;5.38;2.38;;;28.00;99.50;;;;;;5011906;28;20035;-54
2023/08/24 11:30:34;;;;;;;4.38;2.05;;;27.80;99.60;;;;;;5011735;28;20125;-54
2023/08/24 11:33:00;;;;;;;4.60;2.38;;;27.70;99.80;;;;;;5011477;28;20533;-54
2023/08/24 11:35:26;;;;;;;5.25;2.53;;;27.60;99.90;;;;;;5011939;28;20030;-55
2023/08/24 11:38:00;;;;;;;3.97;2.05;;;27.50;99.90;;;;;;5011790;28;20030;-55
2023/08/24 11:40:26;;;;;;;5.40;2.65;;;27.30;99.90;;;;;;5011716;28;20091;-51
2023/08/24 11:42:58;;;;;;;8.20;2.42;;;27.30;99.90;;;;;;5011514;28;20433;-55
2023/08/24 11:45:30;;;;;;;5.15;2.22;;;27.30;99.90;;;;;;5011770;28;20375;-54
2023/08/24 11:47:57;;;;;;;5.43;2.25;;;27.20;99.90;;;;;;5012002;28;20065;-52
2023/08/24 11:50:23;;;;;;;3.75;2.08;;;27.20;99.90;;;;;;5012026;28;20497;-52
2023/08/24 11:52:49;;;;;;;6.05;3.25;;;27.20;99.90;;;;;;5020063;28;20033;-53
2023/08/24 11:55:14;;;;;;;11.05;3.38;;;27.20;99.90;;;;;;5027054;28;20068;-53
2023/08/24 11:57:42;;;;;;;4.80;2.40;;;27.20;99.90;;;;;;5029527;28;20025;-54
2023/08/24 12:00:09;;;;;;;4.43;2.30;;;27.30;99.90;;;;;;5028415;28;20044;-53
2023/08/24 12:02:35;;;;;;;5.85;2.42;;;27.20;99.90;;;;;;5026508;28;20037;-54
2023/08/24 12:05:05;;;;;;;4.38;2.72;;;27.30;99.90;;;;;;5027408;28;20068;-54
2023/08/24 12:07:31;;;;;;;5.60;3.22;;;27.30;99.90;;;;;;5027956;28;20037;-54
2023/08/24 12:10:03;;;;;;;3.92;2.05;;;27.40;99.90;;;;;;5027520;28;20044;-53
2023/08/24 12:12:29;;;;;;;5.03;2.67;;;27.30;99.90;;;;;;5025179;28;20025;-54
2023/08/24 12:14:57;;;;;;;4.18;2.22;;;27.30;99.90;;;;;;5027370;28;20020;-54
2023/08/24 12:17:23;;;;;;;;;;;27.40;99.90;;;;;;5028306;28;20034;-51
2023/08/24 12:20:00;;;;;;;4.82;2.20;;;27.40;99.90;;;;;;5027363;28;20336;-53
2023/08/24 12:22:25;;;;;;;4.47;2.50;;;27.40;99.90;;;;;;5027517;28;20032;-52
2023/08/24 12:24:51;;;;;;;4.68;2.47;;;27.40;99.90;;;;;;5027552;28;20029;-53
2023/08/24 12:27:26;;;;;;;4.60;2.38;;;27.30;99.90;;;;;;5010966;28;20129;-54
2023/08/24 12:29:52;;;;;;;4.80;2.20;;;27.30;99.90;;;;;;5027854;28;20041;-50
2023/08/24 12:32:22;;;;;;;6.88;2.60;;;27.20;99.90;;;;;;5028667;28;20018;-53
2023/08/24 12:34:48;;;;;;;6.85;2.58;;;27.20;99.90;;;;;;5027295;28;20033;-54
2023/08/24 12:37:14;;;;;;;3.95;2.60;;;27.20;99.90;;;;;;5011881;28;20029;-53
2023/08/24 12:39:40;;;;;;;5.63;2.00;;;27.00;99.90;;;;;;5027410;28;20025;-53
2023/08/24 12:42:06;;;;;;;4.38;2.35;;;26.90;99.90;;;;;;5026949;28;20480;-52
2023/08/24 12:44:32;;;;;;;4.22;2.33;;;26.80;99.90;;;;;;5027109;28;20036;-53
2023/08/24 12:46:59;;;;;;;4.55;2.53;;;26.70;99.90;;;;;;5009564;28;20038;-53
2023/08/24 12:49:24;;;;;;;4.18;2.10;;;26.50;99.90;;;;;;5026880;28;20026;-54